createdAt,value
2022-09-27T00:01:14.846Z,2.08
2022-09-27T00:03:42.340Z,2.85
2022-09-27T00:06:14.919Z,2.60
2022-09-27T00:08:42.577Z,2.20
2022-09-27T00:11:20.302Z,2.42
2022-09-27T00:13:47.309Z,2.47
2022-09-27T00:16:14.253Z,2.28
2022-09-27T00:18:41.210Z,2.20
2022-09-27T00:23:36.664Z,2.30
2022-09-27T00:26:04.588Z,2.90
2022-09-27T00:28:31.979Z,2.92
2022-09-27T00:30:59.688Z,2.75
2022-09-27T00:33:27.197Z,2.65
2022-09-27T00:35:54.030Z,2.72
2022-09-27T00:40:48.178Z,2.85
2022-09-27T00:43:21.435Z,3.03
2022-09-27T00:45:53.015Z,2.78
2022-09-27T00:48:27.308Z,2.60
2022-09-27T00:51:00.494Z,2.85
2022-09-27T00:53:41.963Z,2.42
2022-09-27T00:56:12.899Z,2.75
2022-09-27T00:58:45.285Z,3.30
2022-09-27T01:01:14.073Z,2.85
2022-09-27T01:03:45.918Z,2.97
2022-09-27T01:06:14.114Z,2.90
2022-09-27T01:08:40.951Z,2.70
2022-09-27T01:11:36.960Z,2.60
2022-09-27T01:14:29.006Z,3.13
2022-09-27T01:17:28.011Z,3.33
2022-09-27T01:20:09.967Z,2.70
2022-09-27T01:22:55.706Z,3.28
2022-09-27T01:25:31.654Z,3.47
2022-09-27T01:28:16.920Z,3.13
2022-09-27T01:30:49.629Z,3.47
2022-09-27T01:33:54.960Z,3.47
2022-09-27T01:36:30.647Z,3.58
2022-09-27T01:39:07.259Z,3.55
2022-09-27T01:42:12.958Z,3.15
2022-09-27T01:44:50.736Z,3.63
2022-09-27T01:47:32.940Z,3.13
2022-09-27T01:50:37.242Z,3.40
2022-09-27T01:53:18.363Z,3.65
2022-09-27T01:56:09.842Z,2.83
2022-09-27T01:58:56.349Z,2.72
2022-09-27T02:01:26.830Z,2.95
2022-09-27T02:03:57.423Z,3.08
2022-09-27T02:06:50.864Z,3.22
2022-09-27T02:09:35.539Z,2.83
2022-09-27T02:12:23.159Z,3.03
2022-09-27T02:14:56.084Z,3.00
2022-09-27T02:17:30.850Z,2.80
2022-09-27T02:20:17.212Z,2.80
2022-09-27T02:23:33.689Z,2.38
2022-09-27T02:26:21.123Z,2.30
2022-09-27T02:28:52.837Z,2.95
2022-09-27T02:31:26.301Z,2.85
2022-09-27T02:34:11.329Z,2.60
2022-09-27T02:36:38.800Z,2.40
2022-09-27T02:39:06.265Z,3.03
2022-09-27T02:41:34.326Z,2.20
2022-09-27T02:44:05.674Z,2.50
2022-09-27T02:46:52.390Z,1.80
2022-09-27T02:49:50.744Z,1.90
2022-09-27T02:53:07.891Z,1.70
2022-09-27T02:55:55.002Z,1.55
2022-09-27T02:59:13.005Z,1.80
2022-09-27T03:02:19.217Z,1.67
2022-09-27T03:05:03.056Z,1.88
2022-09-27T03:07:30.502Z,1.10
2022-09-27T03:09:57.448Z,1.55
2022-09-27T03:12:27.820Z,1.20
2022-09-27T03:14:57.592Z,0.90
2022-09-27T03:17:44.402Z,1.02
2022-09-27T03:20:26.611Z,0.65
2022-09-27T03:23:04.297Z,0.88
2022-09-27T03:27:58.181Z,1.60
2022-09-27T03:30:25.566Z,0.82
2022-09-27T03:32:52.614Z,1.15
2022-09-27T03:35:38.609Z,0.60
2022-09-27T03:38:07.013Z,0.40
2022-09-27T03:40:34.208Z,0.68
2022-09-27T03:43:01.623Z,0.50
2022-09-27T03:45:29.650Z,0.50
2022-09-27T03:48:00.297Z,0.68
2022-09-27T03:50:27.354Z,0.70
2022-09-27T03:52:54.601Z,0.40
2022-09-27T03:55:22.256Z,0.50
2022-09-27T03:57:49.430Z,0.90
2022-09-27T04:00:18.702Z,0.50
2022-09-27T04:02:45.795Z,0.50
2022-09-27T04:05:28.838Z,0.68
2022-09-27T04:08:15.939Z,0.75
2022-09-27T04:13:10.272Z,0.63
2022-09-27T04:15:43.764Z,0.55
2022-09-27T04:18:30.812Z,0.67
2022-09-27T04:21:17.520Z,0.60
2022-09-27T04:23:50.309Z,0.70
2022-09-27T04:26:21.137Z,0.70
2022-09-27T04:29:01.438Z,0.73
2022-09-27T04:31:29.848Z,1.00
2022-09-27T04:34:45.492Z,0.80
2022-09-27T04:37:14.457Z,1.27
2022-09-27T04:39:45.609Z,0.90
2022-09-27T04:42:12.673Z,1.10
2022-09-27T04:44:39.845Z,0.90
2022-09-27T04:49:35.334Z,1.20
2022-09-27T04:52:02.592Z,0.80
2022-09-27T04:54:30.249Z,0.98
2022-09-27T04:57:08.242Z,1.05
2022-09-27T04:59:35.290Z,0.93
2022-09-27T05:02:02.242Z,1.10
2022-09-27T05:04:41.178Z,1.60
2022-09-27T05:07:09.683Z,1.23
2022-09-27T05:09:42.612Z,1.10
2022-09-27T05:12:09.886Z,1.00
2022-09-27T05:14:55.469Z,1.00
2022-09-27T05:17:52.649Z,1.25
2022-09-27T05:20:39.536Z,3.90
2022-09-27T05:23:13.900Z,1.20
2022-09-27T05:25:42.347Z,1.75
2022-09-27T05:28:09.603Z,0.90
2022-09-27T05:30:36.793Z,1.13
2022-09-27T05:33:08.212Z,0.70
2022-09-27T05:35:54.575Z,0.90
2022-09-27T05:38:25.663Z,1.00
2022-09-27T05:40:55.788Z,1.17
2022-09-27T05:43:24.889Z,1.38
2022-09-27T05:45:53.123Z,0.95
2022-09-27T05:48:22.257Z,0.95
2022-09-27T05:51:06.268Z,0.80
2022-09-27T05:53:36.597Z,0.80
2022-09-27T05:56:06.408Z,1.20
2022-09-27T05:58:57.325Z,1.00
2022-09-27T06:01:27.769Z,1.45
2022-09-27T06:04:14.618Z,0.88
2022-09-27T06:07:12.221Z,1.08
2022-09-27T06:09:39.152Z,1.00
2022-09-27T06:12:10.815Z,0.90
2022-09-27T06:14:38.263Z,0.90
2022-09-27T06:17:09.624Z,1.50
2022-09-27T06:19:41.000Z,0.93
2022-09-27T06:22:08.018Z,1.30
2022-09-27T06:24:57.482Z,1.20
2022-09-27T06:27:27.618Z,1.80
2022-09-27T06:30:00.447Z,1.10
2022-09-27T06:32:48.020Z,0.63
2022-09-27T06:35:38.118Z,0.95
2022-09-27T06:38:11.409Z,1.00
2022-09-27T06:40:45.511Z,1.58
2022-09-27T06:43:23.029Z,1.10
2022-09-27T06:46:05.780Z,1.38
2022-09-27T06:48:51.113Z,0.93
2022-09-27T06:51:20.096Z,1.05
2022-09-27T06:53:48.196Z,1.13
2022-09-27T06:59:06.731Z,1.05
2022-09-27T07:01:56.750Z,1.15
2022-09-27T07:04:25.313Z,1.27
2022-09-27T07:07:28.919Z,1.40
2022-09-27T07:09:56.286Z,1.30
2022-09-27T07:12:26.899Z,1.10
2022-09-27T07:14:54.258Z,1.20
2022-09-27T07:17:21.103Z,1.05
2022-09-27T07:19:49.990Z,1.52
2022-09-27T07:22:17.843Z,1.33
2022-09-27T07:24:48.408Z,0.95
2022-09-27T07:27:16.254Z,1.40
2022-09-27T07:29:43.094Z,1.27
2022-09-27T07:34:38.519Z,0.93
2022-09-27T07:37:06.196Z,1.00
2022-09-27T07:39:38.154Z,0.70
2022-09-27T07:42:06.219Z,0.52
2022-09-27T07:44:34.711Z,0.70
2022-09-27T07:47:26.219Z,0.70
2022-09-27T07:50:12.826Z,0.73
2022-09-27T07:52:53.886Z,0.80
2022-09-27T07:55:35.491Z,0.70
2022-09-27T07:58:13.621Z,0.77
2022-09-27T08:00:41.191Z,0.65
2022-09-27T08:03:16.127Z,1.13
2022-09-27T08:05:44.471Z,1.55
2022-09-27T08:08:11.290Z,1.40
2022-09-27T08:13:06.843Z,1.00
2022-09-27T08:15:39.111Z,0.85
2022-09-27T08:18:09.464Z,1.45
2022-09-27T08:20:57.826Z,0.90
2022-09-27T08:23:51.453Z,1.15
2022-09-27T08:26:38.703Z,1.10
2022-09-27T08:29:18.846Z,0.88
2022-09-27T08:31:52.110Z,1.23
2022-09-27T08:34:22.993Z,0.88
2022-09-27T08:36:50.030Z,1.75
2022-09-27T08:39:17.205Z,1.38
2022-09-27T08:42:10.390Z,1.38
2022-09-27T08:44:37.558Z,1.50
2022-09-27T08:47:45.789Z,1.50
2022-09-27T08:50:28.839Z,1.85
2022-09-27T08:53:08.666Z,1.60
2022-09-27T08:55:54.371Z,1.20
2022-09-27T08:58:32.158Z,1.33
2022-09-27T09:01:03.422Z,1.33
2022-09-27T09:03:43.983Z,1.45
2022-09-27T09:06:20.116Z,1.95
2022-09-27T09:09:07.794Z,2.17
2022-09-27T09:12:14.433Z,2.28
2022-09-27T09:15:08.086Z,2.05
2022-09-27T09:17:55.619Z,1.40
2022-09-27T09:21:10.292Z,1.75
2022-09-27T09:23:48.105Z,1.50
2022-09-27T09:26:42.576Z,1.23
2022-09-27T09:29:25.092Z,1.08
2022-09-27T09:32:06.937Z,1.40
2022-09-27T09:34:42.119Z,1.20
2022-09-27T09:37:21.379Z,1.30
2022-09-27T09:39:59.864Z,1.30
2022-09-27T09:42:37.985Z,1.55
2022-09-27T09:45:18.054Z,1.42
2022-09-27T09:48:15.204Z,1.48
2022-09-27T09:50:46.870Z,1.65
2022-09-27T09:53:21.470Z,0.85
2022-09-27T09:55:57.747Z,1.30
2022-09-27T09:58:33.471Z,1.77
2022-09-27T10:01:24.869Z,0.82
2022-09-27T10:03:53.909Z,0.93
2022-09-27T10:06:21.043Z,1.48
2022-09-27T10:08:48.019Z,1.55
2022-09-27T10:11:41.681Z,1.48
2022-09-27T10:14:15.657Z,1.17
2022-09-27T10:16:48.778Z,1.08
2022-09-27T10:19:26.396Z,1.60
2022-09-27T10:21:58.318Z,0.93
2022-09-27T10:24:25.871Z,1.33
2022-09-27T10:27:05.753Z,0.98
2022-09-27T10:29:38.320Z,1.48
2022-09-27T10:32:25.543Z,0.93
2022-09-27T10:35:43.585Z,0.98
2022-09-27T10:38:35.648Z,1.13
2022-09-27T10:41:31.633Z,1.20
2022-09-27T10:44:17.724Z,1.20
2022-09-27T10:46:51.633Z,1.48
2022-09-27T10:49:39.807Z,1.15
2022-09-27T10:52:18.216Z,1.23
2022-09-27T10:54:59.604Z,1.23
2022-09-27T10:57:30.859Z,1.27
2022-09-27T11:00:03.308Z,1.13
2022-09-27T11:02:34.553Z,0.60
2022-09-27T11:05:15.671Z,0.80
2022-09-27T11:07:54.490Z,0.47
2022-09-27T11:10:37.141Z,0.75
2022-09-27T11:13:12.808Z,0.75
2022-09-27T11:15:47.243Z,0.95
2022-09-27T11:18:24.828Z,1.23
2022-09-27T11:24:00.236Z,0.80
2022-09-27T11:26:48.548Z,0.77
2022-09-27T11:29:47.958Z,0.45
2022-09-27T11:32:23.998Z,0.88
2022-09-27T11:35:23.832Z,1.00
2022-09-27T11:38:11.056Z,0.80
2022-09-27T11:40:44.698Z,0.93
2022-09-27T11:43:48.919Z,0.85
2022-09-27T11:46:38.519Z,0.93
2022-09-27T11:49:37.444Z,0.98
2022-09-27T11:52:41.665Z,0.90
2022-09-27T11:55:25.604Z,0.80
2022-09-27T11:58:18.871Z,2.53
2022-09-27T12:01:04.626Z,1.00
2022-09-27T12:03:40.486Z,1.00
2022-09-27T12:06:18.930Z,2.85
2022-09-27T12:08:59.401Z,2.35
2022-09-27T12:11:44.568Z,1.05
2022-09-27T12:14:54.847Z,0.70
2022-09-27T12:17:31.172Z,0.80
2022-09-27T12:20:00.641Z,1.35
2022-09-27T12:23:00.233Z,1.15
2022-09-27T12:25:51.429Z,1.83
2022-09-27T12:28:37.014Z,1.23
2022-09-27T12:31:33.705Z,0.70
2022-09-27T12:34:38.891Z,0.90
2022-09-27T12:37:12.183Z,1.17
2022-09-27T12:40:03.584Z,0.85
2022-09-27T12:43:00.635Z,1.00
2022-09-27T12:48:14.618Z,0.60
2022-09-27T12:50:53.452Z,0.93
2022-09-27T12:53:33.695Z,1.58
2022-09-27T12:56:11.604Z,1.08
2022-09-27T12:59:02.610Z,0.90
2022-09-27T13:01:52.381Z,1.00
2022-09-27T13:04:19.348Z,1.08
2022-09-27T13:09:52.726Z,0.98
2022-09-27T13:12:29.421Z,1.17
2022-09-27T13:15:04.802Z,0.85
2022-09-27T13:17:59.899Z,1.20
2022-09-27T13:20:35.950Z,1.00
2022-09-27T13:23:18.760Z,0.80
2022-09-27T13:25:55.955Z,0.95
2022-09-27T13:28:48.268Z,0.70
2022-09-27T13:31:54.046Z,0.60
2022-09-27T13:34:47.624Z,0.73
2022-09-27T13:37:45.547Z,0.85
2022-09-27T13:40:17.100Z,0.75
2022-09-27T13:43:13.183Z,0.93
2022-09-27T13:45:55.240Z,0.88
2022-09-27T13:48:27.518Z,0.80
2022-09-27T13:51:02.383Z,0.75
2022-09-27T13:53:29.205Z,0.77
2022-09-27T13:55:57.549Z,0.85
2022-09-27T13:59:24.417Z,1.02
2022-09-27T14:02:29.602Z,0.63
2022-09-27T14:04:58.660Z,0.68
2022-09-27T14:07:34.092Z,1.55
2022-09-27T14:10:04.473Z,0.70
2022-09-27T14:12:40.167Z,0.90
2022-09-27T14:15:31.920Z,0.50
2022-09-27T14:18:01.724Z,0.57
2022-09-27T14:20:34.605Z,0.73
2022-09-27T14:23:04.399Z,0.63
2022-09-27T14:25:44.582Z,0.70
2022-09-27T14:28:23.853Z,0.93
2022-09-27T14:31:22.250Z,0.80
2022-09-27T14:34:08.715Z,0.93
2022-09-27T14:36:56.921Z,0.90
2022-09-27T14:39:33.100Z,0.60
2022-09-27T14:42:16.616Z,0.50
2022-09-27T14:44:45.632Z,0.70
2022-09-27T14:47:18.597Z,0.70
2022-09-27T14:49:54.580Z,0.75
2022-09-27T14:52:27.899Z,0.80
2022-09-27T14:55:00.571Z,0.88
2022-09-27T14:57:32.719Z,0.57
2022-09-27T15:00:20.789Z,0.70
2022-09-27T15:02:55.250Z,0.60
2022-09-27T15:05:28.369Z,0.77
2022-09-27T15:07:58.596Z,0.50
2022-09-27T15:10:31.273Z,0.70
2022-09-27T15:13:01.610Z,0.65
2022-09-27T15:15:39.296Z,0.65
2022-09-27T15:18:46.587Z,0.77
2022-09-27T15:21:27.247Z,0.63
2022-09-27T15:23:55.435Z,0.68
2022-09-27T15:26:35.761Z,0.60
2022-09-27T15:29:03.261Z,0.95
2022-09-27T15:31:37.261Z,0.73
2022-09-27T15:34:07.353Z,0.80
2022-09-27T15:36:55.965Z,0.60
2022-09-27T15:39:34.978Z,0.73
2022-09-27T15:42:17.452Z,0.93
2022-09-27T15:44:54.143Z,1.10
2022-09-27T15:47:38.983Z,0.80
2022-09-27T15:50:15.155Z,0.88
2022-09-27T15:52:44.719Z,0.82
2022-09-27T15:55:12.528Z,1.00
2022-09-27T15:57:40.122Z,1.23
2022-09-27T16:00:11.548Z,1.33
2022-09-27T16:02:38.904Z,1.20
2022-09-27T16:05:06.374Z,0.93
2022-09-27T16:07:33.395Z,1.10
2022-09-27T16:10:00.395Z,1.30
2022-09-27T16:12:30.153Z,1.83
2022-09-27T16:14:57.200Z,1.10
2022-09-27T16:17:24.152Z,1.20
2022-09-27T16:22:17.716Z,1.50
2022-09-27T16:27:11.320Z,1.52
2022-09-27T16:32:11.048Z,1.33
2022-09-27T16:37:05.877Z,1.42
2022-09-27T16:39:33.004Z,1.70
2022-09-27T16:41:59.957Z,1.10
2022-09-27T16:44:27.729Z,1.38
2022-09-27T16:46:54.609Z,1.52
2022-09-27T16:52:07.102Z,1.85
2022-09-27T16:54:33.953Z,1.45
2022-09-27T16:57:01.182Z,1.63
2022-09-27T16:59:28.549Z,1.73
2022-09-27T17:01:57.596Z,1.45
2022-09-27T17:04:25.952Z,1.65
2022-09-27T17:06:52.948Z,1.10
2022-09-27T17:09:23.620Z,1.17
2022-09-27T17:11:51.280Z,0.90
2022-09-27T17:14:18.835Z,1.15
2022-09-27T17:16:49.088Z,0.70
2022-09-27T17:19:16.549Z,0.73
2022-09-27T17:21:45.501Z,0.68
2022-09-27T17:24:13.110Z,1.42
2022-09-27T17:26:40.539Z,0.90
2022-09-27T17:29:08.609Z,1.00
2022-09-27T17:31:38.607Z,1.10
2022-09-27T17:34:06.252Z,1.08
2022-09-27T17:36:35.179Z,1.38
2022-09-27T17:39:03.279Z,1.10
2022-09-27T17:41:30.757Z,1.20
2022-09-27T17:44:00.410Z,0.95
2022-09-27T17:46:31.301Z,0.95
2022-09-27T17:49:17.744Z,1.05
2022-09-27T17:51:48.057Z,0.65
2022-09-27T17:54:16.772Z,0.68
2022-09-27T17:56:44.214Z,0.73
2022-09-27T17:59:15.967Z,0.63
2022-09-27T18:01:44.721Z,0.57
2022-09-27T18:04:14.872Z,0.85
2022-09-27T18:06:44.246Z,1.02
2022-09-27T18:09:13.117Z,0.63
2022-09-27T18:11:40.527Z,1.00
2022-09-27T18:14:10.479Z,1.63
2022-09-27T18:16:41.199Z,1.10
2022-09-27T18:19:11.502Z,1.10
2022-09-27T18:21:39.606Z,1.10
2022-09-27T18:24:07.228Z,1.10
2022-09-27T18:26:39.220Z,1.23
2022-09-27T18:29:18.631Z,0.90
2022-09-27T18:31:48.898Z,1.30
2022-09-27T18:34:19.285Z,1.40
2022-09-27T18:36:46.829Z,1.02
2022-09-27T18:39:18.942Z,1.30
2022-09-27T18:41:49.120Z,1.15
2022-09-27T18:44:16.913Z,1.40
2022-09-27T18:46:44.543Z,1.30
2022-09-27T18:49:13.788Z,1.40
2022-09-27T18:51:43.734Z,1.20
2022-09-27T18:54:21.970Z,1.00
2022-09-27T18:56:50.198Z,1.65
2022-09-27T18:59:17.606Z,1.65
2022-09-27T19:01:46.038Z,1.15
2022-09-27T19:04:16.918Z,1.55
2022-09-27T19:06:46.229Z,1.05
2022-09-27T19:11:40.122Z,0.63
2022-09-27T19:16:33.997Z,0.70
2022-09-27T19:19:01.033Z,1.02
2022-09-27T19:21:29.382Z,0.75
2022-09-27T19:23:57.400Z,1.35
2022-09-27T19:26:26.512Z,0.90
2022-09-27T19:28:53.832Z,0.80
2022-09-27T19:31:25.887Z,0.70
2022-09-27T19:33:58.983Z,0.90
2022-09-27T19:36:27.072Z,0.65
2022-09-27T19:38:54.537Z,1.10
2022-09-27T19:41:21.596Z,1.85
2022-09-27T19:43:52.332Z,1.23
2022-09-27T19:46:20.339Z,0.52
2022-09-27T19:48:48.780Z,0.80
2022-09-27T19:51:21.862Z,0.77
2022-09-27T19:53:49.933Z,0.38
2022-09-27T19:56:18.538Z,0.70
2022-09-27T19:58:45.698Z,0.70
2022-09-27T20:01:21.055Z,0.80
2022-09-27T20:03:49.521Z,0.90
2022-09-27T20:06:18.822Z,0.70
2022-09-27T20:08:47.676Z,0.60
2022-09-27T20:11:17.263Z,0.60
2022-09-27T20:13:44.961Z,0.57
2022-09-27T20:16:14.242Z,0.77
2022-09-27T20:19:01.383Z,0.52
2022-09-27T20:21:32.469Z,0.57
2022-09-27T20:24:01.869Z,0.45
2022-09-27T20:26:30.300Z,1.42
2022-09-27T20:28:59.655Z,1.00
2022-09-27T20:31:37.018Z,0.82
2022-09-27T20:34:06.134Z,0.85
2022-09-27T20:36:36.729Z,1.00
2022-09-27T20:39:12.095Z,1.05
2022-09-27T20:41:41.338Z,0.65
2022-09-27T20:44:10.837Z,0.52
2022-09-27T20:46:39.085Z,0.60
2022-09-27T20:49:08.663Z,0.82
2022-09-27T20:51:39.211Z,0.85
2022-09-27T20:54:08.090Z,1.13
2022-09-27T20:56:38.064Z,0.55
2022-09-27T20:59:10.454Z,0.50
2022-09-27T21:01:43.919Z,0.80
2022-09-27T21:04:13.222Z,0.60
2022-09-27T21:06:41.146Z,0.73
2022-09-27T21:09:08.982Z,0.90
2022-09-27T21:11:36.634Z,0.75
2022-09-27T21:14:03.937Z,1.30
2022-09-27T21:16:34.911Z,0.82
2022-09-27T21:19:02.115Z,0.57
2022-09-27T21:21:29.145Z,0.60
2022-09-27T21:23:58.541Z,0.75
2022-09-27T21:26:29.623Z,1.27
2022-09-27T21:28:58.768Z,0.88
2022-09-27T21:31:27.903Z,0.57
2022-09-27T21:33:58.964Z,1.20
2022-09-27T21:36:28.025Z,0.88
2022-09-27T21:38:55.585Z,0.70
2022-09-27T21:41:22.504Z,1.13
2022-09-27T21:43:49.481Z,0.60
2022-09-27T21:46:27.649Z,0.77
2022-09-27T21:48:59.781Z,0.60
2022-09-27T21:51:33.352Z,1.02
2022-09-27T21:54:05.394Z,0.80
2022-09-27T21:56:37.297Z,0.73
2022-09-27T21:59:05.251Z,0.88
2022-09-27T22:01:33.883Z,1.00
2022-09-27T22:04:01.807Z,0.80
2022-09-27T22:06:30.874Z,0.90
2022-09-27T22:09:00.815Z,0.80
2022-09-27T22:11:30.401Z,0.77
2022-09-27T22:13:58.103Z,0.70
2022-09-27T22:16:30.354Z,0.80
2022-09-27T22:18:57.918Z,0.90
2022-09-27T22:21:31.410Z,0.88
2022-09-27T22:24:05.163Z,1.88
2022-09-27T22:26:37.301Z,1.00
2022-09-27T22:29:05.264Z,0.77
2022-09-27T22:31:32.500Z,0.98
2022-09-27T22:34:01.503Z,1.35
2022-09-27T22:36:30.155Z,0.90
2022-09-27T22:38:57.363Z,1.10
2022-09-27T22:41:25.095Z,1.23
2022-09-27T22:43:54.706Z,1.45
2022-09-27T22:46:22.150Z,1.98
2022-09-27T22:48:49.858Z,1.00
2022-09-27T22:51:17.879Z,1.48
2022-09-27T22:53:45.161Z,0.90
2022-09-27T22:56:18.043Z,1.02
2022-09-27T22:58:47.236Z,1.63
2022-09-27T23:01:24.823Z,0.90
2022-09-27T23:03:54.776Z,1.50
2022-09-27T23:06:22.834Z,0.85
2022-09-27T23:08:51.185Z,1.20
2022-09-27T23:11:20.404Z,0.80
2022-09-27T23:13:49.074Z,1.10
2022-09-27T23:16:18.406Z,1.00
2022-09-27T23:18:46.445Z,1.23
2022-09-27T23:21:14.330Z,1.08
2022-09-27T23:23:44.978Z,0.90
2022-09-27T23:26:14.333Z,0.88
2022-09-27T23:28:41.502Z,1.45
2022-09-27T23:31:16.814Z,0.90
2022-09-27T23:33:46.355Z,1.00
2022-09-27T23:36:16.354Z,1.83
2022-09-27T23:38:45.782Z,1.88
2022-09-27T23:41:14.224Z,1.08
2022-09-27T23:43:41.178Z,1.13
2022-09-27T23:46:09.198Z,1.02
2022-09-27T23:48:36.995Z,1.15
2022-09-27T23:51:07.678Z,1.00
2022-09-27T23:53:34.812Z,1.10
2022-09-27T23:56:06.282Z,1.08
2022-09-27T23:58:38.647Z,0.90
